This is the latest recevied weather packets stored in our database for station/object KI4NG. If no packets are shown the sender has not sent any weather packets the latest 10 day(s).
| Time | Temp. | Humidity | Pressure | Rain* | Wind** | Luminosity | Snow |
|---|---|---|---|---|---|---|---|
| 1777855277 | 12.22° C | 56% | 1016.5 hPa | 0 mm | - | 0 W/m² | - |
| 1777854974 | 12.78° C | 56% | 1016.5 hPa | 0 mm | - | 0 W/m² | - |
| 1777854670 | 12.78° C | 55% | 1016.4 hPa | 0 mm | - | 1 W/m² | - |
| 1777854367 | 13.33° C | 55% | 1016.7 hPa | 0 mm | - | 2 W/m² | - |
| 1777854065 | 13.33° C | 55% | 1016.6 hPa | 0 mm | - | 5 W/m² | - |
| 1777853762 | 13.89° C | 54% | 1016.7 hPa | 0 mm | - | 8 W/m² | - |
| 1777853458 | 13.89° C | 52% | 1016.8 hPa | 0 mm | - | 12 W/m² | - |
| 1777853155 | 14.44° C | 52% | 1017 hPa | 0 mm | - | 15 W/m² | - |
| 1777852853 | 14.44° C | 53% | 1017 hPa | 0 mm | - | 19 W/m² | - |
| 1777852551 | 14.44° C | 52% | 1017 hPa | 0 mm | - | 22 W/m² | - |
| 1777852247 | 15° C | 51% | 1017 hPa | 0 mm | - | 24 W/m² | - |
| 1777851945 | 15° C | 50% | 1016.9 hPa | 0 mm | - | 27 W/m² | - |
| 1777851643 | 15° C | 50% | 1016.8 hPa | 0 mm | - | 30 W/m² | - |
| 1777851339 | 15° C | 50% | 1017.1 hPa | 0 mm | - | 33 W/m² | - |
| 1777851035 | 15.56° C | 50% | 1017 hPa | 0 mm | - | 35 W/m² | - |
| 1777850732 | 15.56° C | 49% | 1016.9 hPa | 0 mm | - | 36 W/m² | - |
| 1777850430 | 15.56° C | 48% | 1017 hPa | 0 mm | - | 39 W/m² | - |
| 1777850128 | 16.11° C | 47% | 1017.1 hPa | 0 mm | - | 64 W/m² | - |
| 1777849824 | 15.56° C | 49% | 1016.6 hPa | 0 mm | - | 48 W/m² | - |
| 1777849521 | 16.11° C | 47% | 1016.7 hPa | 0 mm | - | 115 W/m² | - |
| 1777849219 | 16.11° C | 47% | 1016.8 hPa | 0 mm | - | 71 W/m² | - |
| 1777848915 | 16.11° C | 47% | 1016.8 hPa | 0 mm | - | 100 W/m² | - |
| 1777848610 | 16.67° C | 46% | 1017 hPa | 0 mm | - | 56 W/m² | - |
| 1777848308 | 17.22° C | 46% | 1016.9 hPa | 0 mm | - | 206 W/m² | - |
| 1777848006 | 17.22° C | 45% | 1017 hPa | 0 mm | - | 224 W/m² | - |
* Rain latest hour (hover to see other rain measurements)
** Current wind speed in m/s (hover to see current wind gust speed)